sensor_id;sensor_type;location;lat;lon;timestamp;P1;durP1;ratioP1;P2;durP2;ratioP2
51312;SDS011;37397;53.226;10.400;2022-10-23T00:01:29;11.23;;;5.40;;
51312;SDS011;37397;53.226;10.400;2022-10-23T00:04:01;11.07;;;5.70;;
51312;SDS011;37397;53.226;10.400;2022-10-23T00:06:33;9.00;;;5.75;;
51312;SDS011;37397;53.226;10.400;2022-10-23T00:09:02;10.57;;;5.60;;
51312;SDS011;37397;53.226;10.400;2022-10-23T00:11:29;11.98;;;5.72;;
51312;SDS011;37397;53.226;10.400;2022-10-23T00:13:58;11.70;;;5.00;;
51312;SDS011;37397;53.226;10.400;2022-10-23T00:16:27;10.55;;;5.38;;
51312;SDS011;37397;53.226;10.400;2022-10-23T00:18:54;8.63;;;5.85;;
51312;SDS011;37397;53.226;10.400;2022-10-23T00:21:21;12.02;;;4.95;;
51312;SDS011;37397;53.226;10.400;2022-10-23T00:23:49;9.25;;;5.22;;
51312;SDS011;37397;53.226;10.400;2022-10-23T00:26:16;10.85;;;5.20;;
51312;SDS011;37397;53.226;10.400;2022-10-23T00:28:43;10.32;;;5.55;;
51312;SDS011;37397;53.226;10.400;2022-10-23T00:31:11;12.40;;;5.78;;
51312;SDS011;37397;53.226;10.400;2022-10-23T00:33:39;10.80;;;5.68;;
51312;SDS011;37397;53.226;10.400;2022-10-23T00:36:07;10.65;;;5.47;;
51312;SDS011;37397;53.226;10.400;2022-10-23T00:38:35;11.35;;;5.63;;
51312;SDS011;37397;53.226;10.400;2022-10-23T00:41:02;12.40;;;5.63;;
51312;SDS011;37397;53.226;10.400;2022-10-23T00:43:31;9.75;;;5.30;;
51312;SDS011;37397;53.226;10.400;2022-10-23T00:45:58;11.18;;;5.82;;
51312;SDS011;37397;53.226;10.400;2022-10-23T00:48:26;10.88;;;5.50;;
51312;SDS011;37397;53.226;10.400;2022-10-23T00:50:55;7.20;;;4.80;;
51312;SDS011;37397;53.226;10.400;2022-10-23T00:53:23;9.82;;;6.03;;
51312;SDS011;37397;53.226;10.400;2022-10-23T00:55:53;8.77;;;5.03;;
51312;SDS011;37397;53.226;10.400;2022-10-23T00:58:22;8.68;;;5.03;;
51312;SDS011;37397;53.226;10.400;2022-10-23T01:00:53;10.15;;;5.15;;
51312;SDS011;37397;53.226;10.400;2022-10-23T01:03:22;8.57;;;4.80;;
51312;SDS011;37397;53.226;10.400;2022-10-23T01:05:53;10.77;;;4.93;;
51312;SDS011;37397;53.226;10.400;2022-10-23T01:08:29;10.25;;;5.32;;
51312;SDS011;37397;53.226;10.400;2022-10-23T01:11:04;12.32;;;5.32;;
51312;SDS011;37397;53.226;10.400;2022-10-23T01:13:56;10.30;;;4.78;;
51312;SDS011;37397;53.226;10.400;2022-10-23T01:22:23;11.02;;;5.47;;
51312;SDS011;37397;53.226;10.400;2022-10-23T01:25:10;10.50;;;5.80;;
51312;SDS011;37397;53.226;10.400;2022-10-23T01:27:55;12.15;;;5.35;;
51312;SDS011;37397;53.226;10.400;2022-10-23T01:30:31;9.88;;;5.65;;
51312;SDS011;37397;53.226;10.400;2022-10-23T01:35:49;14.07;;;5.80;;
51312;SDS011;37397;53.226;10.400;2022-10-23T01:38:27;9.85;;;5.53;;
51312;SDS011;37397;53.226;10.400;2022-10-23T01:41:15;12.90;;;4.97;;
51312;SDS011;37397;53.226;10.400;2022-10-23T01:43:50;9.45;;;5.13;;
51312;SDS011;37397;53.226;10.400;2022-10-23T01:46:21;12.00;;;5.13;;
51312;SDS011;37397;53.226;10.400;2022-10-23T01:48:52;9.25;;;5.25;;
51312;SDS011;37397;53.226;10.400;2022-10-23T01:51:19;13.05;;;5.35;;
51312;SDS011;37397;53.226;10.400;2022-10-23T01:53:51;9.88;;;5.20;;
51312;SDS011;37397;53.226;10.400;2022-10-23T01:56:24;7.72;;;5.15;;
51312;SDS011;37397;53.226;10.400;2022-10-23T01:58:54;7.82;;;4.63;;
51312;SDS011;37397;53.226;10.400;2022-10-23T02:01:25;9.73;;;4.97;;
51312;SDS011;37397;53.226;10.400;2022-10-23T02:03:54;8.77;;;5.60;;
51312;SDS011;37397;53.226;10.400;2022-10-23T02:06:27;10.13;;;5.28;;
51312;SDS011;37397;53.226;10.400;2022-10-23T02:08:54;8.45;;;4.68;;
51312;SDS011;37397;53.226;10.400;2022-10-23T02:11:21;12.35;;;5.28;;
51312;SDS011;37397;53.226;10.400;2022-10-23T02:21:50;8.88;;;5.32;;
51312;SDS011;37397;53.226;10.400;2022-10-23T02:24:24;9.90;;;5.57;;
51312;SDS011;37397;53.226;10.400;2022-10-23T02:26:58;13.43;;;5.22;;
51312;SDS011;37397;53.226;10.400;2022-10-23T02:29:35;9.73;;;5.38;;
51312;SDS011;37397;53.226;10.400;2022-10-23T02:32:13;9.05;;;4.95;;
51312;SDS011;37397;53.226;10.400;2022-10-23T02:34:41;11.43;;;4.80;;
51312;SDS011;37397;53.226;10.400;2022-10-23T02:37:09;11.05;;;4.97;;
51312;SDS011;37397;53.226;10.400;2022-10-23T02:39:35;10.13;;;4.95;;
51312;SDS011;37397;53.226;10.400;2022-10-23T02:42:06;12.77;;;5.70;;
51312;SDS011;37397;53.226;10.400;2022-10-23T02:44:49;7.78;;;4.70;;
51312;SDS011;37397;53.226;10.400;2022-10-23T02:47:21;9.60;;;4.85;;
51312;SDS011;37397;53.226;10.400;2022-10-23T02:50:03;8.45;;;5.40;;
51312;SDS011;37397;53.226;10.400;2022-10-23T02:58:27;9.95;;;5.55;;
51312;SDS011;37397;53.226;10.400;2022-10-23T03:01:18;9.25;;;5.03;;
51312;SDS011;37397;53.226;10.400;2022-10-23T03:03:51;9.40;;;4.78;;
51312;SDS011;37397;53.226;10.400;2022-10-23T03:06:20;10.60;;;5.43;;
51312;SDS011;37397;53.226;10.400;2022-10-23T03:08:53;11.82;;;5.70;;
51312;SDS011;37397;53.226;10.400;2022-10-23T03:11:24;9.70;;;5.63;;
51312;SDS011;37397;53.226;10.400;2022-10-23T03:13:54;12.45;;;5.40;;
51312;SDS011;37397;53.226;10.400;2022-10-23T03:16:21;10.55;;;5.50;;
51312;SDS011;37397;53.226;10.400;2022-10-23T03:18:51;9.70;;;5.63;;
51312;SDS011;37397;53.226;10.400;2022-10-23T03:21:18;9.40;;;5.60;;
51312;SDS011;37397;53.226;10.400;2022-10-23T03:23:49;9.25;;;5.05;;
51312;SDS011;37397;53.226;10.400;2022-10-23T03:26:20;10.82;;;5.47;;
51312;SDS011;37397;53.226;10.400;2022-10-23T03:28:47;11.57;;;5.63;;
51312;SDS011;37397;53.226;10.400;2022-10-23T03:31:15;9.38;;;5.63;;
51312;SDS011;37397;53.226;10.400;2022-10-23T03:33:45;10.68;;;5.72;;
51312;SDS011;37397;53.226;10.400;2022-10-23T03:36:12;8.93;;;5.55;;
51312;SDS011;37397;53.226;10.400;2022-10-23T03:38:38;10.32;;;5.80;;
51312;SDS011;37397;53.226;10.400;2022-10-23T03:41:05;10.80;;;5.32;;
51312;SDS011;37397;53.226;10.400;2022-10-23T03:43:32;11.05;;;5.63;;
51312;SDS011;37397;53.226;10.400;2022-10-23T03:45:58;9.48;;;5.38;;
51312;SDS011;37397;53.226;10.400;2022-10-23T03:48:26;8.32;;;5.88;;
51312;SDS011;37397;53.226;10.400;2022-10-23T03:50:56;11.30;;;5.82;;
51312;SDS011;37397;53.226;10.400;2022-10-23T03:53:23;11.60;;;6.05;;
51312;SDS011;37397;53.226;10.400;2022-10-23T03:55:49;8.88;;;5.60;;
51312;SDS011;37397;53.226;10.400;2022-10-23T03:58:16;11.27;;;5.82;;
51312;SDS011;37397;53.226;10.400;2022-10-23T04:00:43;10.40;;;6.60;;
51312;SDS011;37397;53.226;10.400;2022-10-23T04:03:10;9.77;;;5.30;;
51312;SDS011;37397;53.226;10.400;2022-10-23T04:05:36;8.13;;;5.13;;
51312;SDS011;37397;53.226;10.400;2022-10-23T04:08:05;9.48;;;5.63;;
51312;SDS011;37397;53.226;10.400;2022-10-23T04:10:32;10.10;;;5.70;;
51312;SDS011;37397;53.226;10.400;2022-10-23T04:12:59;9.52;;;6.03;;
51312;SDS011;37397;53.226;10.400;2022-10-23T04:15:26;9.70;;;5.30;;
51312;SDS011;37397;53.226;10.400;2022-10-23T04:17:53;9.88;;;5.88;;
51312;SDS011;37397;53.226;10.400;2022-10-23T04:20:20;10.18;;;6.00;;
51312;SDS011;37397;53.226;10.400;2022-10-23T04:22:46;8.13;;;5.47;;
51312;SDS011;37397;53.226;10.400;2022-10-23T04:25:13;9.10;;;5.38;;
51312;SDS011;37397;53.226;10.400;2022-10-23T04:27:39;10.43;;;5.38;;
51312;SDS011;37397;53.226;10.400;2022-10-23T04:30:07;12.80;;;6.20;;
51312;SDS011;37397;53.226;10.400;2022-10-23T04:32:36;11.90;;;5.88;;
51312;SDS011;37397;53.226;10.400;2022-10-23T04:35:03;9.90;;;5.63;;
51312;SDS011;37397;53.226;10.400;2022-10-23T04:37:30;10.38;;;5.55;;
51312;SDS011;37397;53.226;10.400;2022-10-23T04:39:58;11.32;;;5.72;;
51312;SDS011;37397;53.226;10.400;2022-10-23T04:42:25;8.48;;;5.50;;
51312;SDS011;37397;53.226;10.400;2022-10-23T04:44:52;9.43;;;5.60;;
51312;SDS011;37397;53.226;10.400;2022-10-23T04:47:19;10.25;;;5.25;;
51312;SDS011;37397;53.226;10.400;2022-10-23T04:49:54;8.48;;;5.65;;
51312;SDS011;37397;53.226;10.400;2022-10-23T04:52:54;8.95;;;5.38;;
51312;SDS011;37397;53.226;10.400;2022-10-23T04:55:51;9.88;;;5.38;;
51312;SDS011;37397;53.226;10.400;2022-10-23T04:58:25;9.80;;;5.90;;
51312;SDS011;37397;53.226;10.400;2022-10-23T05:00:55;9.60;;;5.65;;
51312;SDS011;37397;53.226;10.400;2022-10-23T05:03:24;9.00;;;5.40;;
51312;SDS011;37397;53.226;10.400;2022-10-23T05:05:52;9.23;;;5.40;;
51312;SDS011;37397;53.226;10.400;2022-10-23T05:08:27;12.60;;;6.07;;
51312;SDS011;37397;53.226;10.400;2022-10-23T05:11:17;8.90;;;5.80;;
51312;SDS011;37397;53.226;10.400;2022-10-23T05:13:47;8.48;;;5.15;;
51312;SDS011;37397;53.226;10.400;2022-10-23T05:16:20;9.57;;;5.40;;
51312;SDS011;37397;53.226;10.400;2022-10-23T05:18:55;9.23;;;5.22;;
51312;SDS011;37397;53.226;10.400;2022-10-23T05:21:24;9.43;;;5.50;;
51312;SDS011;37397;53.226;10.400;2022-10-23T05:23:57;13.63;;;6.38;;
51312;SDS011;37397;53.226;10.400;2022-10-23T05:26:30;10.65;;;5.70;;
51312;SDS011;37397;53.226;10.400;2022-10-23T05:29:03;10.85;;;6.07;;
51312;SDS011;37397;53.226;10.400;2022-10-23T05:31:30;13.10;;;6.07;;
51312;SDS011;37397;53.226;10.400;2022-10-23T05:34:04;9.45;;;5.90;;
51312;SDS011;37397;53.226;10.400;2022-10-23T05:36:42;10.70;;;5.80;;
51312;SDS011;37397;53.226;10.400;2022-10-23T05:39:09;10.48;;;6.28;;
51312;SDS011;37397;53.226;10.400;2022-10-23T05:41:36;10.95;;;5.63;;
51312;SDS011;37397;53.226;10.400;2022-10-23T05:44:03;10.77;;;6.25;;
51312;SDS011;37397;53.226;10.400;2022-10-23T05:46:50;11.55;;;6.07;;
51312;SDS011;37397;53.226;10.400;2022-10-23T05:49:39;11.45;;;6.25;;
51312;SDS011;37397;53.226;10.400;2022-10-23T05:52:21;12.05;;;6.35;;
51312;SDS011;37397;53.226;10.400;2022-10-23T05:55:05;12.93;;;5.67;;
51312;SDS011;37397;53.226;10.400;2022-10-23T05:58:00;10.70;;;6.40;;
51312;SDS011;37397;53.226;10.400;2022-10-23T06:00:48;14.73;;;6.70;;
51312;SDS011;37397;53.226;10.400;2022-10-23T06:03:37;11.80;;;6.43;;
51312;SDS011;37397;53.226;10.400;2022-10-23T06:06:08;10.57;;;6.53;;
51312;SDS011;37397;53.226;10.400;2022-10-23T06:08:44;10.50;;;6.53;;
51312;SDS011;37397;53.226;10.400;2022-10-23T06:11:12;10.25;;;6.72;;
51312;SDS011;37397;53.226;10.400;2022-10-23T06:13:46;10.57;;;6.63;;
51312;SDS011;37397;53.226;10.400;2022-10-23T06:16:19;10.93;;;6.60;;
51312;SDS011;37397;53.226;10.400;2022-10-23T06:18:48;12.43;;;6.43;;
51312;SDS011;37397;53.226;10.400;2022-10-23T06:21:16;11.15;;;6.88;;
51312;SDS011;37397;53.226;10.400;2022-10-23T06:23:46;10.90;;;6.57;;
51312;SDS011;37397;53.226;10.400;2022-10-23T06:26:25;8.77;;;5.93;;
51312;SDS011;37397;53.226;10.400;2022-10-23T06:28:56;11.10;;;6.38;;
51312;SDS011;37397;53.226;10.400;2022-10-23T06:31:24;8.90;;;5.93;;
51312;SDS011;37397;53.226;10.400;2022-10-23T06:33:56;9.18;;;6.20;;
51312;SDS011;37397;53.226;10.400;2022-10-23T06:36:23;10.77;;;6.60;;
51312;SDS011;37397;53.226;10.400;2022-10-23T06:38:56;11.93;;;6.55;;
51312;SDS011;37397;53.226;10.400;2022-10-23T06:41:48;10.15;;;6.35;;
51312;SDS011;37397;53.226;10.400;2022-10-23T06:44:34;11.60;;;6.50;;
51312;SDS011;37397;53.226;10.400;2022-10-23T06:47:07;8.77;;;6.10;;
51312;SDS011;37397;53.226;10.400;2022-10-23T06:50:04;10.73;;;5.95;;
51312;SDS011;37397;53.226;10.400;2022-10-23T06:52:32;14.45;;;6.90;;
51312;SDS011;37397;53.226;10.400;2022-10-23T06:55:15;12.93;;;6.65;;
51312;SDS011;37397;53.226;10.400;2022-10-23T06:57:41;12.20;;;6.43;;
51312;SDS011;37397;53.226;10.400;2022-10-23T07:00:09;11.88;;;6.53;;
51312;SDS011;37397;53.226;10.400;2022-10-23T07:02:50;11.60;;;6.40;;
51312;SDS011;37397;53.226;10.400;2022-10-23T07:05:18;12.85;;;6.40;;
51312;SDS011;37397;53.226;10.400;2022-10-23T07:07:45;11.80;;;6.68;;
51312;SDS011;37397;53.226;10.400;2022-10-23T07:10:17;15.27;;;7.13;;
51312;SDS011;37397;53.226;10.400;2022-10-23T07:12:49;14.77;;;7.40;;
51312;SDS011;37397;53.226;10.400;2022-10-23T07:15:35;13.07;;;7.32;;
51312;SDS011;37397;53.226;10.400;2022-10-23T07:18:05;13.95;;;7.18;;
51312;SDS011;37397;53.226;10.400;2022-10-23T07:20:57;10.15;;;6.60;;
51312;SDS011;37397;53.226;10.400;2022-10-23T07:23:24;12.75;;;6.63;;
51312;SDS011;37397;53.226;10.400;2022-10-23T07:25:52;14.77;;;7.85;;
51312;SDS011;37397;53.226;10.400;2022-10-23T07:28:21;14.10;;;7.30;;
51312;SDS011;37397;53.226;10.400;2022-10-23T07:30:54;15.43;;;7.60;;
51312;SDS011;37397;53.226;10.400;2022-10-23T07:33:35;17.10;;;7.28;;
51312;SDS011;37397;53.226;10.400;2022-10-23T07:36:08;12.35;;;7.00;;
51312;SDS011;37397;53.226;10.400;2022-10-23T07:38:36;13.40;;;7.15;;
51312;SDS011;37397;53.226;10.400;2022-10-23T07:41:03;12.30;;;8.05;;
51312;SDS011;37397;53.226;10.400;2022-10-23T07:43:34;12.52;;;7.22;;
51312;SDS011;37397;53.226;10.400;2022-10-23T07:46:01;13.27;;;7.63;;
51312;SDS011;37397;53.226;10.400;2022-10-23T07:48:33;15.70;;;7.43;;
51312;SDS011;37397;53.226;10.400;2022-10-23T07:51:02;12.63;;;7.10;;
51312;SDS011;37397;53.226;10.400;2022-10-23T07:53:37;11.63;;;6.32;;
51312;SDS011;37397;53.226;10.400;2022-10-23T07:56:15;13.55;;;7.28;;
51312;SDS011;37397;53.226;10.400;2022-10-23T07:59:12;12.88;;;6.90;;
51312;SDS011;37397;53.226;10.400;2022-10-23T08:01:45;10.35;;;6.40;;
51312;SDS011;37397;53.226;10.400;2022-10-23T08:04:17;11.30;;;6.47;;
51312;SDS011;37397;53.226;10.400;2022-10-23T08:06:54;9.70;;;6.63;;
51312;SDS011;37397;53.226;10.400;2022-10-23T08:09:24;15.75;;;6.97;;
51312;SDS011;37397;53.226;10.400;2022-10-23T08:11:50;12.30;;;6.40;;
51312;SDS011;37397;53.226;10.400;2022-10-23T08:14:19;16.70;;;6.45;;
51312;SDS011;37397;53.226;10.400;2022-10-23T08:16:46;14.60;;;6.97;;
51312;SDS011;37397;53.226;10.400;2022-10-23T08:19:15;12.15;;;6.25;;
51312;SDS011;37397;53.226;10.400;2022-10-23T08:21:44;9.90;;;6.32;;
51312;SDS011;37397;53.226;10.400;2022-10-23T08:24:12;11.98;;;6.40;;
51312;SDS011;37397;53.226;10.400;2022-10-23T08:26:41;10.05;;;6.03;;
51312;SDS011;37397;53.226;10.400;2022-10-23T08:29:09;12.55;;;6.50;;
51312;SDS011;37397;53.226;10.400;2022-10-23T08:31:36;11.48;;;6.15;;
51312;SDS011;37397;53.226;10.400;2022-10-23T08:34:13;12.77;;;6.45;;
51312;SDS011;37397;53.226;10.400;2022-10-23T08:36:43;12.35;;;7.03;;
51312;SDS011;37397;53.226;10.400;2022-10-23T08:39:10;11.93;;;6.35;;
51312;SDS011;37397;53.226;10.400;2022-10-23T08:44:18;12.48;;;6.47;;
51312;SDS011;37397;53.226;10.400;2022-10-23T08:47:13;13.82;;;6.13;;
51312;SDS011;37397;53.226;10.400;2022-10-23T08:50:05;11.68;;;6.45;;
51312;SDS011;37397;53.226;10.400;2022-10-23T08:52:46;12.18;;;6.60;;
51312;SDS011;37397;53.226;10.400;2022-10-23T08:55:21;13.75;;;6.53;;
51312;SDS011;37397;53.226;10.400;2022-10-23T09:00:42;10.43;;;5.75;;
51312;SDS011;37397;53.226;10.400;2022-10-23T09:03:11;9.95;;;5.85;;
51312;SDS011;37397;53.226;10.400;2022-10-23T09:05:44;14.93;;;6.25;;
51312;SDS011;37397;53.226;10.400;2022-10-23T09:11:15;9.60;;;5.47;;
51312;SDS011;37397;53.226;10.400;2022-10-23T09:14:14;14.15;;;5.72;;
51312;SDS011;37397;53.226;10.400;2022-10-23T09:19:49;10.65;;;5.75;;
51312;SDS011;37397;53.226;10.400;2022-10-23T09:22:24;13.32;;;6.20;;
51312;SDS011;37397;53.226;10.400;2022-10-23T09:24:50;13.93;;;5.70;;
51312;SDS011;37397;53.226;10.400;2022-10-23T09:27:19;15.13;;;5.90;;
51312;SDS011;37397;53.226;10.400;2022-10-23T09:29:50;11.93;;;5.43;;
51312;SDS011;37397;53.226;10.400;2022-10-23T09:32:31;12.85;;;6.00;;
51312;SDS011;37397;53.226;10.400;2022-10-23T09:35:19;11.85;;;5.32;;
51312;SDS011;37397;53.226;10.400;2022-10-23T09:37:47;12.50;;;4.88;;
51312;SDS011;37397;53.226;10.400;2022-10-23T09:43:00;10.50;;;5.30;;
51312;SDS011;37397;53.226;10.400;2022-10-23T09:45:31;11.77;;;5.18;;
51312;SDS011;37397;53.226;10.400;2022-10-23T09:50:41;12.55;;;4.95;;
51312;SDS011;37397;53.226;10.400;2022-10-23T09:53:28;12.30;;;5.03;;
51312;SDS011;37397;53.226;10.400;2022-10-23T09:55:57;12.15;;;4.70;;
51312;SDS011;37397;53.226;10.400;2022-10-23T09:58:30;10.20;;;4.80;;
51312;SDS011;37397;53.226;10.400;2022-10-23T10:01:00;10.63;;;4.85;;
51312;SDS011;37397;53.226;10.400;2022-10-23T10:03:47;10.07;;;4.78;;
51312;SDS011;37397;53.226;10.400;2022-10-23T10:06:22;8.30;;;4.85;;
51312;SDS011;37397;53.226;10.400;2022-10-23T10:08:52;10.27;;;5.13;;
51312;SDS011;37397;53.226;10.400;2022-10-23T10:11:37;9.75;;;5.00;;
51312;SDS011;37397;53.226;10.400;2022-10-23T10:14:39;10.82;;;4.93;;
51312;SDS011;37397;53.226;10.400;2022-10-23T10:20:13;10.32;;;4.97;;
51312;SDS011;37397;53.226;10.400;2022-10-23T10:23:33;10.25;;;4.72;;
51312;SDS011;37397;53.226;10.400;2022-10-23T10:36:55;12.70;;;4.50;;
51312;SDS011;37397;53.226;10.400;2022-10-23T10:39:35;9.30;;;4.60;;
51312;SDS011;37397;53.226;10.400;2022-10-23T10:42:17;9.70;;;4.35;;
51312;SDS011;37397;53.226;10.400;2022-10-23T10:57:01;11.77;;;5.43;;
51312;SDS011;37397;53.226;10.400;2022-10-23T10:59:36;7.75;;;4.57;;
51312;SDS011;37397;53.226;10.400;2022-10-23T11:02:19;7.13;;;4.32;;
51312;SDS011;37397;53.226;10.400;2022-10-23T11:07:52;9.60;;;4.80;;
51312;SDS011;37397;53.226;10.400;2022-10-23T11:10:19;13.45;;;5.05;;
51312;SDS011;37397;53.226;10.400;2022-10-23T11:12:47;12.23;;;4.40;;
51312;SDS011;37397;53.226;10.400;2022-10-23T11:15:15;10.30;;;5.05;;
51312;SDS011;37397;53.226;10.400;2022-10-23T11:17:47;14.57;;;5.55;;
51312;SDS011;37397;53.226;10.400;2022-10-23T11:20:24;10.90;;;4.55;;
51312;SDS011;37397;53.226;10.400;2022-10-23T11:28:43;10.50;;;5.30;;
51312;SDS011;37397;53.226;10.400;2022-10-23T11:34:13;8.50;;;4.65;;
51312;SDS011;37397;53.226;10.400;2022-10-23T11:36:51;10.13;;;5.00;;
51312;SDS011;37397;53.226;10.400;2022-10-23T11:39:27;11.55;;;4.80;;
51312;SDS011;37397;53.226;10.400;2022-10-23T11:47:27;8.27;;;4.65;;
51312;SDS011;37397;53.226;10.400;2022-10-23T11:52:35;10.80;;;4.65;;
51312;SDS011;37397;53.226;10.400;2022-10-23T11:55:17;10.02;;;4.53;;
51312;SDS011;37397;53.226;10.400;2022-10-23T12:00:30;11.18;;;4.20;;
51312;SDS011;37397;53.226;10.400;2022-10-23T12:02:58;10.23;;;3.95;;
51312;SDS011;37397;53.226;10.400;2022-10-23T12:05:33;9.95;;;4.32;;
51312;SDS011;37397;53.226;10.400;2022-10-23T12:08:04;10.85;;;4.15;;
51312;SDS011;37397;53.226;10.400;2022-10-23T12:10:45;9.30;;;4.70;;
51312;SDS011;37397;53.226;10.400;2022-10-23T12:16:02;10.95;;;4.07;;
51312;SDS011;37397;53.226;10.400;2022-10-23T12:18:30;14.30;;;4.53;;
51312;SDS011;37397;53.226;10.400;2022-10-23T12:20:57;10.30;;;4.00;;
51312;SDS011;37397;53.226;10.400;2022-10-23T12:26:43;8.88;;;3.85;;
51312;SDS011;37397;53.226;10.400;2022-10-23T12:32:33;10.02;;;3.85;;
51312;SDS011;37397;53.226;10.400;2022-10-23T12:36:19;6.90;;;3.38;;
51312;SDS011;37397;53.226;10.400;2022-10-23T12:38:32;8.07;;;3.63;;
51312;SDS011;37397;53.226;10.400;2022-10-23T12:41:07;8.00;;;3.13;;
51312;SDS011;37397;53.226;10.400;2022-10-23T12:43:38;9.63;;;3.85;;
51312;SDS011;37397;53.226;10.400;2022-10-23T12:48:52;8.00;;;3.95;;
51312;SDS011;37397;53.226;10.400;2022-10-23T12:51:24;12.82;;;3.42;;
51312;SDS011;37397;53.226;10.400;2022-10-23T12:53:55;7.50;;;3.00;;
51312;SDS011;37397;53.226;10.400;2022-10-23T12:56:23;8.05;;;3.47;;
51312;SDS011;37397;53.226;10.400;2022-10-23T12:58:57;13.30;;;4.00;;
51312;SDS011;37397;53.226;10.400;2022-10-23T13:01:28;10.60;;;3.58;;
51312;SDS011;37397;53.226;10.400;2022-10-23T13:06:51;8.10;;;3.47;;
51312;SDS011;37397;53.226;10.400;2022-10-23T13:09:22;10.80;;;3.55;;
51312;SDS011;37397;53.226;10.400;2022-10-23T13:12:22;6.70;;;3.05;;
51312;SDS011;37397;53.226;10.400;2022-10-23T13:15:13;8.13;;;3.20;;
51312;SDS011;37397;53.226;10.400;2022-10-23T13:20:20;9.68;;;3.85;;
51312;SDS011;37397;53.226;10.400;2022-10-23T13:22:57;9.40;;;3.80;;
51312;SDS011;37397;53.226;10.400;2022-10-23T13:25:33;7.43;;;3.15;;
51312;SDS011;37397;53.226;10.400;2022-10-23T13:30:35;6.65;;;3.53;;
51312;SDS011;37397;53.226;10.400;2022-10-23T13:38:42;10.68;;;3.42;;
51312;SDS011;37397;53.226;10.400;2022-10-23T13:41:15;11.90;;;3.45;;
51312;SDS011;37397;53.226;10.400;2022-10-23T13:43:43;12.95;;;3.53;;
51312;SDS011;37397;53.226;10.400;2022-10-23T13:46:18;8.27;;;3.30;;
51312;SDS011;37397;53.226;10.400;2022-10-23T13:48:46;11.00;;;3.80;;
51312;SDS011;37397;53.226;10.400;2022-10-23T13:51:26;10.02;;;3.53;;
51312;SDS011;37397;53.226;10.400;2022-10-23T13:53:56;10.18;;;3.90;;
51312;SDS011;37397;53.226;10.400;2022-10-23T13:56:23;7.90;;;3.88;;
51312;SDS011;37397;53.226;10.400;2022-10-23T13:58:51;8.98;;;3.53;;
51312;SDS011;37397;53.226;10.400;2022-10-23T14:03:54;7.45;;;3.78;;
51312;SDS011;37397;53.226;10.400;2022-10-23T14:06:22;9.77;;;3.60;;
51312;SDS011;37397;53.226;10.400;2022-10-23T14:08:48;7.75;;;3.63;;
51312;SDS011;37397;53.226;10.400;2022-10-23T14:11:16;9.95;;;4.10;;
51312;SDS011;37397;53.226;10.400;2022-10-23T14:13:44;6.22;;;3.88;;
51312;SDS011;37397;53.226;10.400;2022-10-23T14:16:12;8.80;;;3.72;;
51312;SDS011;37397;53.226;10.400;2022-10-23T14:18:39;8.60;;;4.10;;
51312;SDS011;37397;53.226;10.400;2022-10-23T14:21:07;7.55;;;3.35;;
51312;SDS011;37397;53.226;10.400;2022-10-23T14:23:36;8.88;;;3.47;;
51312;SDS011;37397;53.226;10.400;2022-10-23T14:26:03;9.55;;;4.22;;
51312;SDS011;37397;53.226;10.400;2022-10-23T14:28:30;12.00;;;3.47;;
51312;SDS011;37397;53.226;10.400;2022-10-23T14:31:02;9.10;;;3.78;;
51312;SDS011;37397;53.226;10.400;2022-10-23T14:33:29;9.40;;;3.88;;
51312;SDS011;37397;53.226;10.400;2022-10-23T14:35:56;8.10;;;3.60;;
51312;SDS011;37397;53.226;10.400;2022-10-23T14:38:23;8.25;;;3.45;;
51312;SDS011;37397;53.226;10.400;2022-10-23T14:40:49;11.00;;;3.83;;
51312;SDS011;37397;53.226;10.400;2022-10-23T14:43:16;8.73;;;3.80;;
51312;SDS011;37397;53.226;10.400;2022-10-23T14:45:43;10.55;;;3.60;;
51312;SDS011;37397;53.226;10.400;2022-10-23T14:48:09;9.10;;;3.53;;
51312;SDS011;37397;53.226;10.400;2022-10-23T14:50:37;8.90;;;4.00;;
51312;SDS011;37397;53.226;10.400;2022-10-23T14:53:08;9.80;;;3.55;;
51312;SDS011;37397;53.226;10.400;2022-10-23T14:55:35;8.73;;;3.80;;
51312;SDS011;37397;53.226;10.400;2022-10-23T14:58:02;7.10;;;3.20;;
51312;SDS011;37397;53.226;10.400;2022-10-23T15:00:28;9.00;;;3.80;;
51312;SDS011;37397;53.226;10.400;2022-10-23T15:02:55;9.27;;;3.92;;
51312;SDS011;37397;53.226;10.400;2022-10-23T15:05:23;8.68;;;3.60;;
51312;SDS011;37397;53.226;10.400;2022-10-23T15:07:58;8.52;;;3.40;;
51312;SDS011;37397;53.226;10.400;2022-10-23T15:10:26;8.80;;;3.60;;
51312;SDS011;37397;53.226;10.400;2022-10-23T15:12:53;7.63;;;3.65;;
51312;SDS011;37397;53.226;10.400;2022-10-23T15:15:19;9.73;;;3.72;;
51312;SDS011;37397;53.226;10.400;2022-10-23T15:17:47;9.65;;;4.18;;
51312;SDS011;37397;53.226;10.400;2022-10-23T15:20:14;7.43;;;3.65;;
51312;SDS011;37397;53.226;10.400;2022-10-23T15:22:40;8.13;;;3.88;;
51312;SDS011;37397;53.226;10.400;2022-10-23T15:25:07;9.60;;;3.78;;
51312;SDS011;37397;53.226;10.400;2022-10-23T15:27:38;6.82;;;3.42;;
51312;SDS011;37397;53.226;10.400;2022-10-23T15:30:05;10.02;;;3.72;;
51312;SDS011;37397;53.226;10.400;2022-10-23T15:32:31;8.35;;;3.60;;
51312;SDS011;37397;53.226;10.400;2022-10-23T15:34:58;9.25;;;3.60;;
51312;SDS011;37397;53.226;10.400;2022-10-23T15:37:25;9.77;;;3.95;;
51312;SDS011;37397;53.226;10.400;2022-10-23T15:39:51;5.65;;;3.60;;
51312;SDS011;37397;53.226;10.400;2022-10-23T15:42:20;7.65;;;3.80;;
51312;SDS011;37397;53.226;10.400;2022-10-23T15:44:46;10.07;;;3.70;;
51312;SDS011;37397;53.226;10.400;2022-10-23T15:47:13;8.70;;;3.95;;
51312;SDS011;37397;53.226;10.400;2022-10-23T15:49:40;9.55;;;3.80;;
51312;SDS011;37397;53.226;10.400;2022-10-23T15:52:08;10.18;;;3.67;;
51312;SDS011;37397;53.226;10.400;2022-10-23T15:54:40;7.20;;;3.67;;
51312;SDS011;37397;53.226;10.400;2022-10-23T15:57:06;7.53;;;3.58;;
51312;SDS011;37397;53.226;10.400;2022-10-23T15:59:33;6.63;;;3.85;;
51312;SDS011;37397;53.226;10.400;2022-10-23T16:02:00;7.32;;;3.67;;
51312;SDS011;37397;53.226;10.400;2022-10-23T16:04:26;10.13;;;3.75;;
51312;SDS011;37397;53.226;10.400;2022-10-23T16:06:53;8.93;;;4.22;;
51312;SDS011;37397;53.226;10.400;2022-10-23T16:09:20;8.98;;;3.65;;
51312;SDS011;37397;53.226;10.400;2022-10-23T16:11:47;9.00;;;3.53;;
51312;SDS011;37397;53.226;10.400;2022-10-23T16:14:14;7.05;;;3.45;;
51312;SDS011;37397;53.226;10.400;2022-10-23T16:16:42;7.45;;;3.78;;
51312;SDS011;37397;53.226;10.400;2022-10-23T16:19:09;9.10;;;3.80;;
51312;SDS011;37397;53.226;10.400;2022-10-23T16:21:36;7.88;;;4.00;;
51312;SDS011;37397;53.226;10.400;2022-10-23T16:24:03;8.77;;;3.80;;
51312;SDS011;37397;53.226;10.400;2022-10-23T16:26:32;9.68;;;3.70;;
51312;SDS011;37397;53.226;10.400;2022-10-23T16:29:00;8.82;;;3.83;;
51312;SDS011;37397;53.226;10.400;2022-10-23T16:31:29;8.52;;;3.92;;
51312;SDS011;37397;53.226;10.400;2022-10-23T16:33:59;9.38;;;4.15;;
51312;SDS011;37397;53.226;10.400;2022-10-23T16:36:27;7.05;;;3.95;;
51312;SDS011;37397;53.226;10.400;2022-10-23T16:39:13;7.28;;;3.63;;
51312;SDS011;37397;53.226;10.400;2022-10-23T16:42:00;9.95;;;3.70;;
51312;SDS011;37397;53.226;10.400;2022-10-23T16:44:47;7.60;;;3.15;;
51312;SDS011;37397;53.226;10.400;2022-10-23T16:47:14;8.85;;;3.40;;
51312;SDS011;37397;53.226;10.400;2022-10-23T16:49:41;5.63;;;3.08;;
51312;SDS011;37397;53.226;10.400;2022-10-23T16:52:09;6.95;;;3.40;;
51312;SDS011;37397;53.226;10.400;2022-10-23T16:54:36;6.15;;;3.25;;